Time;durP1;ratioP1;P1;durP2;ratioP2;P2;SDS_P1;SDS_P2;PMS_P1;PMS_P2;Temp;Humidity;BMP_temperature;BMP_pressure;BME280_temperature;BME280_humidity;BME280_pressure;Samples;Min_cycle;Max_cycle;Signal;HPM_P1;HPM_P2
2021/05/18 00:00:50;;;;;;;23.17;10.52;;;;;;;9.73;86.12;101186.78;5000668;28;20087;-74
2021/05/18 00:03:18;;;;;;;23.58;9.80;;;;;;;9.78;86.27;101178.69;4995964;28;20432;-74
2021/05/18 00:05:48;;;;;;;25.65;11.07;;;;;;;9.68;86.73;101183.34;5001427;28;20446;-74
2021/05/18 00:08:17;;;;;;;25.30;10.00;;;;;;;9.73;87.80;101184.13;4999856;28;20065;-75
2021/05/18 00:13:35;;;;;;;23.83;10.35;;;;;;;9.68;88.30;101180.69;4976476;28;20068;-75
2021/05/18 00:16:04;;;;;;;26.50;9.98;;;;;;;9.69;88.68;101182.47;4981025;28;20073;-75
2021/05/18 00:18:33;;;;;;;26.38;10.73;;;;;;;9.66;88.58;101178.06;4985150;28;20345;-75
2021/05/18 00:21:03;;;;;;;27.35;11.05;;;;;;;9.68;88.71;101183.34;5011726;28;20066;-75
2021/05/18 00:23:30;;;;;;;25.27;10.38;;;;;;;9.70;88.32;101177.09;4983231;28;20066;-75
2021/05/18 00:25:58;;;;;;;26.85;10.93;;;;;;;9.73;88.63;101181.47;4976934;28;20073;-75
2021/05/18 00:28:26;;;;;;;24.20;10.35;;;;;;;9.71;89.27;101172.63;4982538;28;20057;-75
2021/05/18 00:30:54;;;;;;;28.90;11.52;;;;;;;9.69;89.97;101178.00;4978764;28;20061;-74
2021/05/18 00:33:23;;;;;;;25.95;10.90;;;;;;;9.68;89.15;101178.03;4979472;28;20058;-72
2021/05/18 00:35:50;;;;;;;29.70;11.07;;;;;;;9.68;89.59;101178.03;4976889;28;20050;-73
2021/05/18 00:38:19;;;;;;;28.30;12.23;;;;;;;9.65;89.71;101188.75;4980939;28;20067;-73
2021/05/18 00:40:47;;;;;;;27.00;12.02;;;;;;;9.68;89.62;101178.91;4980358;28;20065;-73
2021/05/18 00:43:14;;;;;;;30.15;11.38;;;;;;;9.68;90.06;101186.03;4981342;28;20062;-74
2021/05/18 00:45:45;;;;;;;28.33;12.43;;;;;;;9.68;89.82;101186.88;4989284;28;20058;-74
2021/05/18 00:48:15;;;;;;;34.60;14.20;;;;;;;9.70;90.97;101195.75;5000334;28;20365;-73
2021/05/18 00:50:46;;;;;;;29.60;12.57;;;;;;;9.69;90.51;101187.78;4996146;28;20085;-73
2021/05/18 00:53:14;;;;;;;41.83;14.70;;;;;;;9.62;90.93;101188.81;4998453;28;20173;-73
2021/05/18 00:55:44;;;;;;;30.23;13.77;;;;;;;9.64;90.91;101197.69;4997931;28;20062;-73
2021/05/18 00:58:27;;;;;;;31.83;14.20;;;;;;;9.61;91.58;101192.41;5000613;28;20050;-73
2021/05/18 01:00:56;;;;;;;29.35;12.80;;;;;;;9.61;91.60;101195.06;4999959;28;20058;-73
2021/05/18 01:03:25;;;;;;;28.45;12.98;;;;;;;9.57;91.19;101196.03;5001022;28;20348;-74
2021/05/18 01:08:38;;;;;;;28.38;13.93;;;;;;;9.53;91.74;101187.25;4996444;28;20064;-74
2021/05/18 01:11:06;;;;;;;37.35;14.52;;;;;;;9.47;91.81;101188.25;4995960;28;20939;-74
2021/05/18 01:13:35;;;;;;;34.47;14.45;;;;;;;9.53;91.86;101192.56;4999912;28;20489;-74
2021/05/18 01:16:04;;;;;;;35.78;14.57;;;;;;;9.58;92.18;101189.81;4996493;28;20058;-74
2021/05/18 01:18:37;;;;;;;35.83;14.27;;;;;;;9.53;92.14;101195.22;4998439;28;20247;-74
2021/05/18 01:21:06;;;;;;;39.47;15.88;;;;;;;9.55;91.99;101188.06;4997112;28;20479;-75
2021/05/18 01:23:33;;;;;;;33.10;13.80;;;;;;;9.58;91.82;101193.34;4998033;28;20054;-73
2021/05/18 01:26:02;;;;;;;34.17;15.13;;;;;;;9.55;92.14;101188.06;4998227;28;20061;-73
2021/05/18 01:28:29;;;;;;;36.53;16.45;;;;;;;9.57;91.74;101188.03;4997752;28;20072;-73
2021/05/18 01:30:57;;;;;;;39.72;15.32;;;;;;;9.57;91.88;101196.03;5001487;28;20092;-73
2021/05/18 01:33:25;;;;;;;35.05;16.98;;;;;;;9.56;92.05;101197.84;4999828;28;20085;-73
2021/05/18 01:35:53;;;;;;;43.38;16.70;;;;;;;9.57;91.99;101194.28;5000354;28;20060;-73
2021/05/18 01:38:25;;;;;;;37.00;15.57;;;;;;;9.58;91.98;101196.00;4996859;28;20069;-74
2021/05/18 01:43:38;;;;;;;43.63;18.35;;;;;;;9.60;92.34;101201.31;4997050;28;20768;-74
2021/05/18 01:46:05;;;;;;;42.00;17.85;;;;;;;9.61;92.35;101197.75;4996799;28;20065;-74
2021/05/18 01:48:35;;;;;;;40.60;17.52;;;;;;;9.58;91.92;101197.81;4997670;28;20058;-74
2021/05/18 01:51:03;;;;;;;42.70;18.13;;;;;;;9.63;92.72;101195.91;4997993;28;20058;-74
2021/05/18 01:53:31;;;;;;;47.40;19.10;;;;;;;9.64;92.80;101195.00;4994978;28;20130;-74
2021/05/18 01:56:15;;;;;;;46.28;20.30;;;;;;;9.62;92.47;101205.69;4997467;28;20161;-74
2021/05/18 01:58:42;;;;;;;44.13;19.65;;;;;;;9.61;92.26;101206.59;4996694;28;20054;-74
2021/05/18 02:01:09;;;;;;;51.47;19.70;;;;;;;9.62;92.64;101202.13;4998908;28;20486;-74
2021/05/18 02:03:36;;;;;;;57.00;20.65;;;;;;;9.63;92.11;101209.22;4995794;28;20057;-74
2021/05/18 02:06:04;;;;;;;48.88;19.30;;;;;;;9.61;92.22;101206.59;4997853;28;20374;-74
2021/05/18 02:08:33;;;;;;;56.03;20.30;;;;;;;9.63;92.74;101206.56;4997670;28;20077;-74
2021/05/18 02:11:00;;;;;;;45.83;19.95;;;;;;;9.63;92.84;101204.78;4997870;28;20346;-74
2021/05/18 02:13:27;;;;;;;49.30;19.85;;;;;;;9.61;93.10;101211.06;4998885;28;20152;-73
2021/05/18 02:15:56;;;;;;;49.88;21.25;;;;;;;9.62;93.24;101218.13;4995386;28;20058;-74
2021/05/18 02:21:24;;;;;;;53.47;21.75;;;;;;;9.63;93.36;101215.44;4970481;28;20131;-73
2021/05/18 02:26:38;;;;;;;49.78;21.73;;;;;;;9.61;92.64;101214.59;4994322;28;20461;-73
2021/05/18 02:29:05;;;;;;;54.38;22.58;;;;;;;9.63;93.03;101211.91;4999648;28;20072;-74
2021/05/18 02:31:33;;;;;;;50.22;19.38;;;;;;;9.59;92.48;101216.41;4997314;28;20062;-74
2021/05/18 02:34:00;;;;;;;50.80;19.58;;;;;;;9.60;92.45;101211.97;4998690;28;20527;-74
2021/05/18 02:36:28;;;;;;;43.35;18.75;;;;;;;9.59;92.07;101216.41;4993827;28;20066;-75
2021/05/18 02:38:56;;;;;;;46.63;18.58;;;;;;;9.61;92.47;101216.38;4998764;28;20069;-75
2021/05/18 02:41:24;;;;;;;36.95;16.58;;;;;;;9.58;91.89;101225.31;4994263;28;20460;-73
2021/05/18 02:43:54;;;;;;;36.47;16.85;;;;;;;9.54;91.88;101224.50;4999872;28;20072;-73
2021/05/18 02:49:09;;;;;;;36.30;16.77;;;;;;;9.53;91.93;101221.88;4998975;28;20068;-73
2021/05/18 02:51:38;;;;;;;39.25;15.70;;;;;;;9.48;91.69;101218.44;4994922;28;20060;-73
2021/05/18 02:54:08;;;;;;;28.70;13.45;;;;;;;9.44;91.36;101214.97;4999180;28;20090;-73
2021/05/18 02:56:40;;;;;;;28.40;13.65;;;;;;;9.46;92.10;101222.91;4997058;28;20366;-73
2021/05/18 02:59:12;;;;;;;29.35;14.15;;;;;;;9.42;91.59;101223.91;4996829;28;20124;-74
2021/05/18 03:01:42;;;;;;;27.40;12.23;;;;;;;9.37;91.21;101229.31;4996797;28;20073;-71
2021/05/18 03:04:09;;;;;;;26.00;10.65;;;;;;;9.38;91.30;101225.75;4994689;28;20058;-71
2021/05/18 03:06:37;;;;;;;22.33;10.77;;;;;;;9.35;91.24;101225.81;4995996;28;20489;-71
2021/05/18 03:09:10;;;;;;;27.77;12.38;;;;;;;9.40;91.84;101231.03;5000276;28;20076;-71
2021/05/18 03:11:38;;;;;;;24.40;12.00;;;;;;;9.37;91.55;101229.31;4995392;28;20884;-74
2021/05/18 03:14:07;;;;;;;26.70;12.05;;;;;;;9.30;91.21;101228.56;4999244;28;20064;-73
2021/05/18 03:16:36;;;;;;;24.58;11.35;;;;;;;9.32;91.18;101229.41;4997909;28;20058;-76
2021/05/18 03:19:04;;;;;;;22.65;10.95;;;;;;;9.31;91.68;101234.75;4996762;28;20275;-74
2021/05/18 03:21:31;;;;;;;22.08;10.60;;;;;;;9.33;92.08;101236.50;4999938;28;20076;-74
2021/05/18 03:23:59;;;;;;;29.00;13.52;;;;;;;9.29;92.09;101233.91;4999189;28;20061;-74
2021/05/18 03:26:28;;;;;;;32.38;14.32;;;;;;;9.30;92.12;101235.69;4997429;28;20050;-73
2021/05/18 03:28:58;;;;;;;31.98;15.10;;;;;;;9.31;92.77;101240.09;4999021;28;20527;-73
2021/05/18 03:34:33;;;;;;;38.90;16.25;;;;;;;9.31;92.71;101238.31;5000553;28;20137;-73
2021/05/18 03:37:06;;;;;;;41.45;18.55;;;;;;;9.29;92.44;101236.59;5001042;28;20058;-74
2021/05/18 03:39:34;;;;;;;43.60;19.15;;;;;;;9.25;92.36;101240.22;5001582;28;20261;-72
2021/05/18 03:42:06;;;;;;;38.97;17.83;;;;;;;9.20;92.90;101245.63;5001042;28;20246;-71
2021/05/18 03:44:53;;;;;;;33.75;17.42;;;;;;;9.21;92.46;101244.75;4997042;28;20676;-72
2021/05/18 03:52:59;;;;;;;38.22;17.50;;;;;;;9.18;92.58;101249.22;5000242;28;20058;-72
2021/05/18 04:03:51;;;;;;;33.88;17.63;;;;;;;9.21;93.01;101252.72;4996676;28;20401;-71
2021/05/18 04:17:35;;;;;;;33.28;17.15;;;;;;;9.31;93.00;101272.94;4992276;28;20403;-72
2021/05/18 04:20:14;;;;;;;34.13;16.95;;;;;;;9.34;92.85;101269.31;5001828;28;20349;-71
2021/05/18 04:22:57;;;;;;;26.67;14.35;;;;;;;9.37;92.67;101276.41;4998027;28;20306;-72
2021/05/18 04:25:48;;;;;;;36.55;15.80;;;;;;;9.41;92.83;101275.41;5000588;28;20684;-71
2021/05/18 04:50:55;;;;;;;33.40;16.23;;;;;;;9.53;92.70;101292.03;4998188;28;20326;-71
2021/05/18 04:53:29;;;;;;;36.88;16.35;;;;;;;9.58;92.24;101293.72;4995254;28;20058;-71
2021/05/18 04:59:02;;;;;;;37.75;15.73;;;;;;;9.64;92.43;101299.78;4997655;28;20089;-71
2021/05/18 05:01:38;;;;;;;33.28;15.88;;;;;;;9.67;92.17;101298.84;4996461;28;20058;-71
2021/05/18 05:04:18;;;;;;;32.42;14.57;;;;;;;9.66;91.88;101305.97;4996084;28;20070;-71
2021/05/18 05:06:52;;;;;;;29.20;12.18;;;;;;;9.70;91.71;101305.00;4997601;28;20205;-71
2021/05/18 05:09:23;;;;;;;31.13;13.77;;;;;;;9.68;91.25;101319.25;4996089;28;20069;-71
2021/05/18 05:14:37;;;;;;;35.92;16.67;;;;;;;9.80;91.91;101310.13;4994521;28;20062;-70
2021/05/18 05:17:05;;;;;;;36.95;15.88;;;;;;;9.84;91.56;101306.47;4997727;28;20054;-70
2021/05/18 05:19:34;;;;;;;34.90;15.32;;;;;;;9.86;91.41;101312.69;4996690;28;20053;-71
2021/05/18 05:22:03;;;;;;;36.95;15.50;;;;;;;9.86;91.26;101318.88;4997570;28;20077;-72
2021/05/18 05:24:31;;;;;;;33.75;14.73;;;;;;;9.94;91.97;101321.34;4996762;28;20124;-71
2021/05/18 05:26:58;;;;;;;34.72;16.63;;;;;;;9.95;91.80;101324.94;4998117;28;20065;-71
2021/05/18 05:29:26;;;;;;;38.22;18.02;;;;;;;10.05;91.53;101323.81;4997170;28;20069;-70
2021/05/18 05:31:54;;;;;;;35.45;16.52;;;;;;;10.13;91.71;101323.63;4997371;28;20064;-70
2021/05/18 05:34:22;;;;;;;37.00;15.35;;;;;;;10.13;91.31;101320.97;5000243;28;20071;-70
2021/05/18 05:36:51;;;;;;;39.33;16.80;;;;;;;10.23;91.16;101326.06;4997927;28;20504;-70
2021/05/18 05:39:23;;;;;;;38.90;15.68;;;;;;;10.26;90.61;101328.63;4997727;28;20096;-70
2021/05/18 05:41:52;;;;;;;35.13;15.20;;;;;;;10.33;91.05;101328.53;4996459;28;20062;-71
2021/05/18 05:44:20;;;;;;;34.75;14.77;;;;;;;10.35;91.00;101324.94;4995696;28;20057;-70
2021/05/18 05:46:47;;;;;;;37.08;16.52;;;;;;;10.37;90.83;101331.09;4997745;28;20445;-71
2021/05/18 05:49:14;;;;;;;36.78;16.77;;;;;;;10.27;90.40;101333.06;5011645;28;20080;-70
2021/05/18 05:51:41;;;;;;;43.80;18.23;;;;;;;10.37;90.65;101339.13;4996074;28;20085;-71
2021/05/18 05:54:10;;;;;;;40.28;17.17;;;;;;;10.40;90.36;101341.72;4995864;28;20499;-71
2021/05/18 05:56:37;;;;;;;44.25;17.40;;;;;;;10.45;90.30;101342.47;4996736;28;20058;-71
2021/05/18 05:59:06;;;;;;;40.03;16.77;;;;;;;10.56;90.34;101339.56;4998275;28;20314;-71
2021/05/18 06:01:34;;;;;;;48.13;19.13;;;;;;;10.64;89.83;101344.69;4994090;28;20072;-71
2021/05/18 06:04:01;;;;;;;43.53;17.27;;;;;;;10.69;89.95;101348.13;4996969;28;20073;-72
2021/05/18 06:06:28;;;;;;;41.80;17.60;;;;;;;10.58;88.89;101350.19;4999451;28;20062;-69
2021/05/18 06:08:56;;;;;;;36.72;16.63;;;;;;;10.55;88.78;101352.94;4992134;28;20451;-69
2021/05/18 06:11:30;;;;;;;43.85;16.58;;;;;;;10.54;88.64;101352.06;4999432;28;20453;-69
2021/05/18 06:14:12;;;;;;;42.25;17.02;;;;;;;10.49;87.76;101356.63;4992030;28;20066;-68
2021/05/18 06:17:16;;;;;;;37.38;17.42;;;;;;;10.50;88.44;101355.69;4998268;28;20061;-69
2021/05/18 06:42:03;;;;;;;32.88;15.07;;;;;;;11.81;84.53;101389.69;4993125;28;20213;-70
2021/05/18 06:47:31;;;;;;;34.78;15.90;;;;;;;12.10;80.66;101377.31;4991437;28;20124;-70
2021/05/18 06:50:09;;;;;;;27.13;13.00;;;;;;;12.78;79.08;101383.25;4997657;28;20058;-70
2021/05/18 06:52:36;;;;;;;24.98;12.15;;;;;;;13.05;78.09;101385.00;4994841;28;20073;-69
2021/05/18 06:55:07;;;;;;;25.67;12.82;;;;;;;13.91;77.63;101383.81;4996372;28;20814;-72
2021/05/18 06:57:42;;;;;;;27.55;11.45;;;;;;;14.10;75.78;101383.13;4992824;28;20093;-69
2021/05/18 07:00:12;;;;;;;23.80;10.52;;;;;;;13.91;73.81;101394.53;4998297;28;20062;-70
2021/05/18 07:02:43;;;;;;;27.00;11.88;;;;;;;13.76;73.06;101393.28;4991962;28;20059;-70
2021/05/18 07:05:15;;;;;;;24.95;11.45;;;;;;;13.58;73.89;101389.44;4992976;28;20066;-70
2021/05/18 07:07:45;;;;;;;22.05;10.57;;;;;;;13.27;73.27;101398.53;4994611;28;20361;-70
2021/05/18 07:10:12;;;;;;;23.77;10.07;;;;;;;13.50;71.77;101406.75;5001316;28;20132;-69
2021/05/18 07:12:39;;;;;;;19.80;9.95;;;;;;;13.66;71.03;101397.22;4998963;28;20065;-70
2021/05/18 07:15:08;;;;;;;25.75;11.05;;;;;;;13.51;74.92;101411.19;5002162;28;20112;-69
2021/05/18 07:17:36;;;;;;;28.42;11.75;;;;;;;13.81;74.91;101407.41;4995610;28;20087;-70
2021/05/18 07:20:15;;;;;;;27.83;12.55;;;;;;;13.60;76.15;101421.56;4999697;28;20062;-71
2021/05/18 07:22:42;;;;;;;22.40;10.18;;;;;;;14.04;70.69;101405.66;5002644;28;20077;-71
2021/05/18 07:25:10;;;;;;;21.98;11.80;;;;;;;14.88;69.88;101414.06;4998381;28;20118;-71
2021/05/18 07:27:38;;;;;;;25.98;12.43;;;;;;;14.38;73.51;101412.44;5001635;28;20057;-70
2021/05/18 07:30:06;;;;;;;25.58;11.73;;;;;;;13.45;74.53;101407.78;4999407;28;20057;-70
2021/05/18 07:32:34;;;;;;;23.52;10.40;;;;;;;13.54;75.13;101416.44;4999934;28;20062;-70
2021/05/18 07:35:02;;;;;;;25.80;11.68;;;;;;;13.14;74.12;101431.16;5000914;28;20066;-70
2021/05/18 07:37:30;;;;;;;23.92;10.63;;;;;;;12.92;75.47;101423.81;4999588;28;20555;-71
2021/05/18 07:39:58;;;;;;;24.65;12.32;;;;;;;13.81;72.34;101414.59;4998243;28;20062;-71
2021/05/18 07:42:25;;;;;;;23.30;10.57;;;;;;;14.22;70.43;101420.22;5001605;28;20104;-71
2021/05/18 07:44:52;;;;;;;17.67;9.85;;;;;;;14.99;69.28;101419.00;4997951;28;20065;-71
2021/05/18 07:47:21;;;;;;;15.63;8.73;;;;;;;15.45;66.41;101415.25;4991816;28;20054;-71
2021/05/18 07:49:49;;;;;;;17.52;8.48;;;;;;;14.98;64.33;101418.13;4998417;28;20058;-71
2021/05/18 08:05:59;;;;;;;18.67;8.75;;;;;;;15.59;63.76;101433.47;4999322;28;20354;-70
2021/05/18 08:08:28;;;;;;;22.67;9.32;;;;;;;16.09;64.06;101432.19;4999185;28;20544;-71
2021/05/18 08:10:59;;;;;;;19.85;8.90;;;;;;;16.51;62.21;101435.63;4999176;28;20196;-71
2021/05/18 08:13:26;;;;;;;14.40;7.95;;;;;;;16.51;61.08;101435.63;4998417;28;20095;-70
2021/05/18 08:19:03;;;;;;;15.38;7.82;;;;;;;16.25;59.40;101425.13;5001469;28;21161;-70
2021/05/18 10:34:47;;;;;;;8.27;3.80;;;;;;;16.80;48.05;101466.56;4996848;28;20073;-73
2021/05/18 10:37:31;;;;;;;8.60;4.32;;;;;;;16.27;52.11;101472.66;4994519;28;20184;-72
2021/05/18 10:40:32;;;;;;;8.52;4.07;;;;;;;15.63;49.55;101482.63;4997309;28;20062;-73
2021/05/18 10:43:11;;;;;;;9.18;3.78;;;;;;;17.51;48.38;101476.59;4999609;28;20445;-73
2021/05/18 10:46:20;;;;;;;8.13;3.72;;;;;;;17.78;45.74;101474.28;5003667;28;20516;-74
2021/05/18 10:48:55;;;;;;;9.55;4.45;;;;;;;17.07;46.31;101474.28;4998990;28;20064;-73
2021/05/18 10:51:49;;;;;;;8.52;3.83;;;;;;;17.68;47.15;101478.41;5004386;28;20058;-73
2021/05/18 10:54:26;;;;;;;9.13;4.50;;;;;;;17.79;47.36;101473.31;4999337;28;20440;-73
2021/05/18 10:57:14;;;;;;;9.95;3.80;;;;;;;17.82;44.10;101473.16;5000414;28;20070;-73
2021/05/18 10:59:44;;;;;;;8.63;3.35;;;;;;;18.00;46.42;101474.06;4999211;28;20180;-73
2021/05/18 11:02:14;;;;;;;7.00;3.60;;;;;;;17.82;45.99;101481.25;4997001;28;20066;-76
2021/05/18 11:04:44;;;;;;;9.07;4.35;;;;;;;17.92;44.44;101479.00;5000544;28;20112;-75
2021/05/18 11:07:12;;;;;;;8.85;3.28;;;;;;;19.04;43.81;101470.13;4997263;28;20290;-75
2021/05/18 11:09:40;;;;;;;9.15;4.32;;;;;;;19.16;44.19;101471.25;4998068;28;20062;-72
2021/05/18 11:12:12;;;;;;;10.40;4.30;;;;;;;19.23;43.53;101478.03;4999529;28;20065;-73
2021/05/18 11:15:06;;;;;;;7.45;3.40;;;;;;;19.19;42.39;101486.44;4997726;28;20070;-72
2021/05/18 11:17:34;;;;;;;;;;;;;;;17.51;43.55;101492.78;5000924;28;20070;-72
2021/05/18 11:20:08;;;;;;;10.25;3.92;;;;;;;18.23;44.01;101488.16;4994822;28;19935;-72
2021/05/18 11:23:21;;;;;;;9.50;3.95;;;;;;;17.88;47.08;101494.47;4999235;28;20180;-72
2021/05/18 11:25:53;;;;;;;8.20;3.65;;;;;;;17.10;45.70;101501.97;4996843;28;20069;-73
2021/05/18 11:28:24;;;;;;;10.25;4.10;;;;;;;16.30;46.03;101507.53;4998225;28;20061;-72
2021/05/18 11:30:53;;;;;;;8.25;3.70;;;;;;;15.99;48.09;101511.63;4996960;28;20061;-72
2021/05/18 11:33:27;;;;;;;11.13;3.53;;;;;;;16.33;47.19;101510.97;4998804;28;20058;-72
2021/05/18 11:36:05;;;;;;;6.95;3.42;;;;;;;17.11;47.73;101517.22;4999940;28;20057;-73
2021/05/18 11:38:34;;;;;;;8.98;3.78;;;;;;;17.63;47.08;101515.56;4998726;28;20437;-73
2021/05/18 11:41:02;;;;;;;6.53;3.40;;;;;;;17.18;46.37;101513.25;4999161;28;20310;-72
2021/05/18 11:43:34;;;;;;;6.18;3.10;;;;;;;17.75;46.91;101520.31;4994399;28;20058;-72
2021/05/18 11:46:05;;;;;;;8.73;3.17;;;;;;;17.91;46.99;101518.63;5000239;28;20060;-72
2021/05/18 11:48:33;;;;;;;8.40;3.25;;;;;;;16.85;48.01;101517.59;4998093;28;20057;-73
2021/05/18 11:51:05;;;;;;;8.18;3.20;;;;;;;16.69;47.35;101523.69;4999872;28;20129;-73
2021/05/18 11:53:35;;;;;;;10.30;3.55;;;;;;;17.30;46.76;101524.41;4992862;28;20062;-73
2021/05/18 11:56:25;;;;;;;7.68;3.03;;;;;;;17.58;47.12;101526.59;5000469;28;20088;-73
2021/05/18 11:59:01;;;;;;;6.47;2.90;;;;;;;17.32;44.77;101530.59;4999058;28;20069;-73
2021/05/18 12:01:31;;;;;;;7.60;2.60;;;;;;;17.15;44.86;101526.91;5003417;28;20070;-73
2021/05/18 12:04:06;;;;;;;6.82;2.70;;;;;;;17.81;45.72;101535.31;4998891;28;20081;-72
2021/05/18 12:06:35;;;;;;;5.50;2.60;;;;;;;17.74;45.82;101530.25;5001120;28;20066;-72
2021/05/18 12:09:04;;;;;;;5.10;2.92;;;;;;;18.07;45.66;101531.31;4996117;28;20058;-73
2021/05/18 12:11:32;;;;;;;7.75;2.40;;;;;;;18.07;44.42;101545.69;4999733;28;20069;-72
2021/05/18 12:13:59;;;;;;;8.82;3.00;;;;;;;17.90;44.52;101530.34;4998993;28;20084;-73
2021/05/18 12:16:27;;;;;;;3.47;2.20;;;;;;;17.61;44.00;101531.84;4998672;28;20139;-72
2021/05/18 12:18:57;;;;;;;6.28;2.00;;;;;;;17.16;43.29;101544.84;4997663;28;20153;-72
2021/05/18 12:21:27;;;;;;;6.90;2.25;;;;;;;16.81;46.36;101531.19;4998436;28;20061;-72
2021/05/18 12:24:09;;;;;;;5.10;2.15;;;;;;;17.40;43.75;101541.88;4997835;28;20065;-72
2021/05/18 12:26:51;;;;;;;3.92;2.03;;;;;;;17.82;42.34;101529.84;4998493;28;20346;-72
2021/05/18 12:29:31;;;;;;;4.93;2.35;;;;;;;17.05;43.01;101532.81;5001206;28;20459;-72
2021/05/18 12:32:20;;;;;;;7.22;2.88;;;;;;;17.22;44.54;101535.56;4999620;28;20074;-71
2021/05/18 12:34:50;;;;;;;6.43;2.35;;;;;;;16.80;45.29;101531.25;4999933;28;20069;-73
2021/05/18 12:37:18;;;;;;;7.60;2.70;;;;;;;17.14;45.07;101535.06;4996363;28;20069;-74
2021/05/18 12:39:48;;;;;;;7.07;2.80;;;;;;;17.61;44.17;101536.38;4996039;28;20069;-72
2021/05/18 12:42:25;;;;;;;6.55;2.92;;;;;;;17.65;47.08;101540.63;4999136;28;20058;-72
2021/05/18 12:44:55;;;;;;;7.95;3.03;;;;;;;17.39;46.15;101539.25;5003833;28;20176;-73
2021/05/18 12:47:27;;;;;;;8.30;3.30;;;;;;;18.28;45.80;101538.25;4997609;28;20548;-72
2021/05/18 12:49:56;;;;;;;9.38;3.10;;;;;;;17.56;44.63;101544.69;4998259;28;20444;-72
2021/05/18 12:52:24;;;;;;;8.93;3.95;;;;;;;17.91;46.12;101545.63;4995696;28;20858;-72
2021/05/18 12:54:54;;;;;;;6.85;3.45;;;;;;;16.63;46.43;101556.28;4991476;28;20058;-72
2021/05/18 12:57:24;;;;;;;7.90;3.35;;;;;;;16.94;47.95;101549.47;4997027;28;20133;-72
2021/05/18 13:00:07;;;;;;;5.80;3.25;;;;;;;17.67;47.29;101554.91;4997575;28;20057;-74
2021/05/18 13:02:41;;;;;;;6.63;3.30;;;;;;;18.08;46.11;101543.84;4999928;28;20085;-74
2021/05/18 13:05:20;;;;;;;7.05;3.78;;;;;;;18.04;46.00;101553.06;4999029;28;20065;-74
2021/05/18 13:08:07;;;;;;;8.20;3.92;;;;;;;17.81;46.96;101552.41;4998348;28;20386;-73
2021/05/18 13:10:39;;;;;;;7.20;3.28;;;;;;;18.21;45.18;101546.78;4998766;28;20105;-73
2021/05/18 13:13:08;;;;;;;8.10;2.80;;;;;;;17.33;46.18;101554.78;4997711;28;20538;-72
2021/05/18 13:15:36;;;;;;;7.55;2.67;;;;;;;17.68;44.48;101551.28;4999465;28;20066;-70
2021/05/18 13:18:05;;;;;;;5.95;2.60;;;;;;;18.25;45.37;101551.06;4998185;28;20062;-71
2021/05/18 13:20:48;;;;;;;8.38;2.83;;;;;;;16.56;46.85;101554.81;4997354;28;20217;-72
2021/05/18 13:23:24;;;;;;;8.83;2.87;;;;;;;17.48;46.67;101560.38;4998535;28;20120;-72
2021/05/18 13:28:37;;;;;;;10.27;3.03;;;;;;;16.94;44.93;101547.69;4997285;28;20066;-70
2021/05/18 13:31:05;;;;;;;7.85;2.70;;;;;;;17.45;44.74;101555.13;4993450;28;20307;-73
2021/05/18 13:33:33;;;;;;;5.93;2.38;;;;;;;17.32;46.15;101561.13;4997414;28;20066;-73
2021/05/18 13:36:01;;;;;;;4.47;2.28;;;;;;;18.29;47.04;101561.63;4999172;28;20064;-73
2021/05/18 13:38:33;;;;;;;6.22;2.40;;;;;;;18.61;44.98;101574.34;4994006;28;20062;-72
2021/05/18 13:41:01;;;;;;;6.57;2.63;;;;;;;17.71;46.22;101572.72;4999701;28;20315;-73
2021/05/18 13:43:28;;;;;;;7.78;2.20;;;;;;;17.42;46.08;101568.75;4995988;28;20467;-73
2021/05/18 13:45:55;;;;;;;6.95;2.80;;;;;;;18.22;45.40;101554.81;4999479;28;20193;-73
2021/05/18 13:48:23;;;;;;;8.15;2.67;;;;;;;17.76;45.80;101572.47;4993945;28;20054;-74
2021/05/18 13:50:50;;;;;;;6.97;2.50;;;;;;;17.38;46.15;101565.34;5014383;28;20547;-75
2021/05/18 13:53:19;;;;;;;5.25;2.03;;;;;;;18.04;46.18;101559.34;4990697;28;20115;-74
2021/05/18 13:55:50;;;;;;;6.93;2.30;;;;;;;17.58;45.68;101576.97;5013356;28;20065;-73
2021/05/18 13:58:17;;;;;;;6.80;2.50;;;;;;;17.51;44.84;101562.91;4996029;28;20053;-73
2021/05/18 14:00:46;;;;;;;9.48;3.10;;;;;;;17.26;46.04;101563.25;4997491;28;20050;-73
2021/05/18 14:03:13;;;;;;;7.65;2.55;;;;;;;17.94;46.63;101568.00;4993579;28;20062;-72
2021/05/18 14:05:41;;;;;;;4.28;2.15;;;;;;;17.77;45.79;101569.69;4994903;28;20057;-73
2021/05/18 14:08:30;;;;;;;7.88;2.67;;;;;;;16.64;46.92;101558.03;4993965;28;20061;-72
2021/05/18 14:11:00;;;;;;;6.28;2.50;;;;;;;16.50;46.94;101561.38;4996420;28;20058;-71
2021/05/18 14:13:31;;;;;;;6.97;2.50;;;;;;;17.52;47.86;101562.84;4994628;28;20054;-71
2021/05/18 14:15:59;;;;;;;7.25;2.33;;;;;;;17.47;46.43;101562.19;4992754;28;20062;-73
2021/05/18 14:18:26;;;;;;;5.07;2.38;;;;;;;17.10;46.50;101552.34;4993689;28;20066;-71
2021/05/18 14:20:54;;;;;;;6.05;2.45;;;;;;;17.35;45.30;101558.28;4996004;28;20150;-75
2021/05/18 14:23:23;;;;;;;5.63;2.15;;;;;;;17.49;45.92;101562.13;4995916;28;20101;-74
2021/05/18 14:25:52;;;;;;;7.78;2.33;;;;;;;17.21;46.45;101554.50;4991969;28;20104;-73
2021/05/18 14:28:33;;;;;;;9.30;2.40;;;;;;;16.73;45.57;101567.53;4994834;28;20065;-76
2021/05/18 14:31:00;;;;;;;7.45;2.42;;;;;;;16.98;46.60;101569.97;4994066;28;20058;-74
2021/05/18 14:33:28;;;;;;;5.20;2.40;;;;;;;17.53;44.67;101569.97;4998073;28;20333;-73
2021/05/18 14:35:55;;;;;;;6.40;2.15;;;;;;;17.48;45.89;101566.63;4997007;28;20077;-74
2021/05/18 14:38:24;;;;;;;8.40;2.85;;;;;;;17.56;45.33;101560.88;4991923;28;20058;-74
2021/05/18 14:42:48;;;;;;;6.65;2.90;;;;;;;17.59;43.62;101571.50;4997026;28;20054;-74
2021/05/18 14:44:07;;;;;;;4.95;2.00;;;;;;;17.78;44.03;101565.19;4994045;28;20061;-76
2021/05/18 14:46:40;;;;;;;12.75;2.83;;;;;;;17.81;44.45;101562.31;5009956;28;20092;-77
2021/05/18 14:54:48;;;;;;;6.10;2.30;;;;;;;16.59;45.11;101560.06;4992736;28;20093;-72
2021/05/18 14:57:16;;;;;;;3.92;2.25;;;;;;;17.17;45.68;101562.75;4991977;28;20062;-71
2021/05/18 14:59:43;;;;;;;5.65;2.42;;;;;;;17.55;43.66;101568.09;4993708;28;20465;-71
2021/05/18 15:02:11;;;;;;;4.22;2.50;;;;;;;17.90;43.58;101570.84;4993370;28;20062;-72
2021/05/18 15:04:38;;;;;;;8.35;2.83;;;;;;;17.71;44.00;101581.69;4994032;28;20484;-71
2021/05/18 15:07:07;;;;;;;5.90;2.58;;;;;;;18.24;41.87;101568.25;4996116;28;20430;-74
2021/05/18 15:09:35;;;;;;;6.32;2.38;;;;;;;18.41;42.10;101573.59;4994540;28;20094;-74
2021/05/18 15:12:04;;;;;;;5.18;2.30;;;;;;;18.60;42.19;101573.50;4994003;28;20077;-75
2021/05/18 15:14:34;;;;;;;6.45;2.28;;;;;;;17.96;41.82;101577.75;4998443;28;20069;-74
2021/05/18 15:17:02;;;;;;;5.53;2.97;;;;;;;17.83;41.90;101572.09;4992045;28;20058;-74
2021/05/18 15:19:30;;;;;;;6.38;2.28;;;;;;;18.19;41.98;101581.13;4994108;28;20066;-75
2021/05/18 15:21:59;;;;;;;5.55;2.53;;;;;;;17.71;43.16;101575.44;4994266;28;20066;-75
2021/05/18 15:24:27;;;;;;;4.75;2.55;;;;;;;18.47;41.76;101576.00;4997902;28;20093;-74
2021/05/18 15:26:55;;;;;;;7.63;3.13;;;;;;;17.52;42.98;101573.63;4992912;28;20069;-74
2021/05/18 15:29:23;;;;;;;5.57;3.08;;;;;;;17.60;43.49;101586.72;4997745;28;20062;-74
2021/05/18 15:31:51;;;;;;;5.68;2.38;;;;;;;17.77;43.31;101590.44;4997159;28;20070;-74
2021/05/18 15:34:19;;;;;;;6.97;2.85;;;;;;;18.23;41.61;101583.53;4998023;28;20116;-74
2021/05/18 15:36:46;;;;;;;6.32;2.70;;;;;;;17.46;42.28;101582.03;4994286;28;20062;-75
2021/05/18 15:39:14;;;;;;;8.80;3.13;;;;;;;18.36;41.41;101583.78;4999603;28;20141;-74
2021/05/18 15:41:44;;;;;;;7.63;2.97;;;;;;;17.68;41.64;101594.47;4995936;28;20064;-74
2021/05/18 15:44:11;;;;;;;4.20;2.58;;;;;;;17.99;42.27;101591.09;4999553;28;20092;-75
2021/05/18 15:46:39;;;;;;;9.00;3.53;;;;;;;18.21;43.14;101590.88;4997294;28;20062;-75
2021/05/18 15:49:07;;;;;;;7.78;2.95;;;;;;;17.51;41.52;101590.78;5000434;28;20094;-73
2021/05/18 15:51:35;;;;;;;9.85;3.25;;;;;;;17.68;41.62;101589.06;5000523;28;20066;-75
2021/05/18 15:54:03;;;;;;;5.65;2.65;;;;;;;17.82;41.69;101591.94;4993825;28;20050;-74